KLSSOUTHWEST WASHINGTON RGNL
METARs for nearby airports:
N 0 20' KKLS 181856Z 16009KT 10SM BKN060 04/01 A3045
S 20 58' KSPB 181901Z 00000KT 4SM BR OVC002 01/01 A3045
S 31 28' KVUO 181853Z 00000KT 6SM BR OVC006 02/01 A3046
N 33 177' KCLS 181915Z 19006KT 10SM OVC050 05/02 A3042
S 34 30' KPDX 181853Z 34003KT 2SM BR OVC006 02/00 A3046
S 34 208' KHIO 181853Z 00000KT 3SM BR OVC006 01/01 A3044
SE 39 38' KTTD 181920Z VRB03KT 10SM BKN015 OVC055 04/01 A3046
W 40 14' KAST 181855Z 01003KT 10SM -RA BKN043 OVC055 04/03 A3043
N 51 207' KOLM 181854Z 00000KT 10SM OVC050 03/01 A3041
S 52 199' KUAO 181853Z 25004KT 2SM BR BKN003 OVC015 01/01 A3047
S 56 162' KMMV 181916Z 14004KT 3SM BR OVC002 00/00 A3045
SW 56 39' KTMK 181915Z 00000KT 10SM OVC060 05/01 A3046
N 59 300' KGRF 181858Z 00000KT 10SM OVC055 05/04 A3040
N 63 322' KTCM 181858Z 00000KT 10SM SCT039 OVC049 04/04 A3041
N 64 537' KPLU 181915Z 00000KT 10SM BKN037 OVC060 04/02 A3041
NW 66 17' KHQM 181853Z 00000KT 6SM BR FEW035 OVC050 04/03 A3041
N 67 272' KSHN 181853Z VRB03KT 10SM SCT042 03/01 A3038
N 70 294' KTIW 181853Z 18004KT 10SM SCT008 SCT029 BKN036 04/02 A3040
S 72 213' KSLE 181859Z 26003KT 3SM BR OVC004 02/01 A3045
E 78 246' KDLS 181853Z 07005KT 10SM OVC023 02/M02 A3042
N 82 444' KPWT 181856Z 00000KT 10SM SCT020 OVC048 03/02 A3040
N 83 432' KSEA 181853Z 17005KT 9SM FEW007 BKN015 OVC024 04/02 A3040
N 87 32' KRNT 181911Z 09005KT 10SM BKN010 OVC023 04/02 A3042
N 88 21' KBFI 181904Z 13004KT 9SM BKN008 BKN023 OVC060 04/02 A3042
S 98 249' KCVO 181914Z 14004KT 2SM BR OVC001 02/01 A3046
TAFs for nearby airports:
S 34 30' KPDX KPDX 181757Z 1818/1918 VRB03KT 1/2SM FG OVC003
  FM181900 VRB03KT 6SM BR OVC005
  FM181930 VRB03KT P6SM OVC050
  FM191000 23002KT P6SM OVC015
S 34 208' KHIO KHIO 181758Z 1818/1918 VRB03KT 3/4SM BR OVC002
  FM181900 00000KT 2SM BR OVC005
  FM182030 VRB03KT P6SM OVC040
SE 39 38' KTTD KTTD 181757Z 1818/1918 VRB03KT 5SM BR SCT004 OVC013
  FM181900 00000KT P6SM BKN020 OVC050
  FM190600 00000KT P6SM OVC015
W 40 14' KAST TAF KAST 181737Z 1818/1918 12004KT P6SM OVC040
  FM182100 31005KT P6SM SCT025 OVC040
  FM190600 23004KT P6SM SCT020 OVC035
N 51 207' KOLM TAF KOLM 181720Z 1818/1918 VRB03KT P6SM BKN050
  FM190700 21005KT 3SM BR OVC025
  FM190900 21003KT 1SM BR OVC015
S 52 199' KUAO KUAO 181737Z 1818/1918 00000KT 2SM BR OVC003
  FM181900 00000KT 3SM BR OVC006
  FM182000 00000KT P6SM OVC040
N 59 300' KGRF TAF KGRF 181303Z 1813/1919 VRB06KT 4800 BR BKN025 620259 QNH3025INS
  BECMG 1816/1817 VRB06KT 9999 NSW SCT025 OVC040 620409 QNH3035INS
  BECMG 1905/1906 24006KT 9000 BR OVC010 620105 QNH3040INS TX04/1821Z TNM04/1814Z
N 63 322' KTCM TAF KTCM 181303Z 1813/1919 VRB06KT 4800 BR BKN025 620259 QNH3025INS
  BECMG 1816/1817 VRB06KT 9999 NSW SCT025 OVC040 620409 QNH3035INS
  BECMG 1905/1906 24006KT 9000 BR OVC010 620105 QNH3040INS TX04/1821Z TNM04/1814Z
NW 66 17' KHQM TAF KHQM 181720Z 1818/1918 VRB04KT P6SM OVC050
  TEMPO 1818/1820 5SM BR
  FM190800 24005KT P6SM OVC025
S 72 213' KSLE TAF KSLE 181737Z 1818/1918 00000KT 1 1/2SM BR OVC003
  FM181830 00000KT 3SM BR OVC005
  FM181930 15003KT P6SM OVC050
E 78 246' KDLS KDLS 181722Z 1818/1918 33008KT P6SM BKN015 BKN030
  FM182200 30008KT P6SM BKN050
  FM190600 31004KT 4SM BR BKN015
  FM191500 31007KT P6SM SCT015 BKN040
N 82 444' KPWT TAF KPWT 181720Z 1818/1918 VRB02KT P6SM BKN025 OVC050
  FM182100 VRB04KT P6SM SCT025 OVC050
  FM190600 VRB02KT P6SM OVC015
N 83 432' KSEA TAF KSEA 181720Z 1818/1924 15005KT P6SM BKN010 OVC020
  FM182100 22004KT P6SM SCT025 BKN050
  FM190600 23005KT P6SM OVC020
  FM191200 15005KT P6SM OVC015
  FM192100 17007KT P6SM -SHRA OVC015
N 88 21' KBFI TAF KBFI 181720Z 1818/1918 15004KT P6SM OVC025
  FM182100 VRB03KT P6SM SCT030 BKN050
  FM190600 15005KT P6SM OVC040
  FM190900 14004KT P6SM OVC025
Area forecast:
000
FAUS46 KKCI 101945
FA6W  
SFOC FA 101945
SYNOPSIS AND VFR CLDS/WX
SYNOPSIS VALID UNTIL 111400
CLDS/WX VALID UNTIL 110800...OTLK VALID 110800-111400
WA OR CA AND CSTL WTRS
.
SEE AIRMET SIERRA FOR IFR CONDS AND MTN OBSCN.
TS IMPLY SEV OR GTR TURB SEV ICE LLWS AND IFR CONDS.
NON MSL HGTS DENOTED BY AGL OR CIG.
.
SYNOPSIS...UPR LVL TROF WAS LOCATED NR 130W. MOIST SWLY FLOW
EXTDS FROM PAC NW EWD INTO NRN ROCKIES. HIGH PRES RIDGE WAS OVR
MUCH OF THE REST OF THE AREA. BY 14Z...UPR LVL TROF WILL EXTD
FROM WA-OR SWD INTO CA.  ..STREIB..
.
WA CASCDS WWD
CSTL SXNS
CSTLN-INLAND...SCT-BKN025 BKN035-050 TOPS 120-140. ISOL -SHRA.
   OTLK...MVFR CIGS SHRA BR.
PUGET SOUND-INTR VLY...SCT-BKN020 BKN-OVC035-050 TOPS 160 BKN CI.
   WDLY SCT -SHRA. OTLK...MVFR CIGS SHRA.
CASCDS...BKN-OVC050-070 TOPS FL180. BKN CI ABV. WDLY SCT -SHRA.
   OTLK...MVFR CIGS SHRA.
.
WA E OF CASCDS
CNTRL WA...SCT140 OVC CI. BECMG 2302 SCT080 BKN120 LYRD FL240.
   OTLK...VFR.
ERN WA...SCT-BKN140-160 LYRD FL240. BECMG 0508 BKN080 OVC120
   LYRD FL240 ISOL -SHRA DVLPG. OTLK...VFR.
.
OR CASCDS WWD
CSTL SXNS
CSTLN-INLAND...SCT-BKN020 BKN-OVC035-050 TOPS FL180. WDLY SCT
   -SHRA. OTLK...MVFR CIGS SHRA.
WILLAMETTE VLY/SWRN INTR...SCT-BKN020 BKN-OVC035-050 TOPS FL180.
   WDLY SCT -SHRA. OTLK...MVFR CIGS SHRA.
CASCDS...SCT-BKN060 BKN-OVC080-100 TOPS FL180 ISOL -SHRA.
   OTLK...MVFR CIGS SHRA.
.
OR E OF CASCDS
CNTRL...SCT100-120 BKN150 LYRD FL240. OTLK...VFR.
ERN...SCT130-150 BKN CI. BECMG 0205 OVC120-140 LYRD FL240.
   OTLK...VFR.
.
NRN CA...STS-SAC-TVL LN NWD
CSTL SXNS...
   FOT NWD...SCT025 BKN CI ABV. BECMG 0205 SCT020 OVC050 TOPS
      160. ISOL -SHRA. OTLK...IFR CIGS.
   S OF FOT...SCT-BKN010 TOPS 030-040. OTLK...IFR CIGS.
REST OF AREA...SKC OCNL SCT CI. OCNL VYS 3-5SM FU HZ.
   OTLK...VFR.
SAC VLY...
   NRN AND CNTRL SXNS...SKC. OTLK...VFR.
   SRN SXNS...SKC. OCNL VIS 3-5SM FU HZ. OTLK...MVFR FU HZ.
SHASTA-SISKIYOUS-NERN CA...
NRN SIERRAS...SKC OCNL SCT CI. WINDS SLY G25KT. OTLK...VFR WIND.
.
CNTRL CA
CSTL SXNS...
   CSTLN...SKC OCNL SCT010. BECMG 0508 OCNL CIGS BKN-SCT010 TOPS
      020-030. OTLK...IFR CIGS.
   INLAND...SKC. OTLK...VFR BECMG 1114 IFR CIGS BR.
SAN JOAQUIN VLY...SKC. OTLK...VFR.
SRN SIERRAS..SKC. OTLK...VFR.
.
SRN CA..VBG-NID-60NNW BIH LN SWD
CSTL SXNS...
   CSTLN...
      EXTRM SRN SXNS...SKC. BECMG 0205 SCT010. BECMG 0508 CIGS
         BKN-OVC010 TOPS 030. OTLK...IFR CIGS.
      REST OF AREA...SKC. OTLK...VFR BECMG 0811 IFR CIGS BR.
   INLAND...SKC OCNL FEW CI. OTLK...VFR.
INTR MTNS-MOJAVE-SRN DESERTS...SKC OCNL FEW CI. OTLK...VFR.
.
CSTL WTRS
WA...SCT-BKN035-050 TOPS 100-120. ISOL -SHRA. OTLK...VFR.
OR...
NWRN HLF...SCT-BKN035-050 TOPS 100-120. ISOL -SHRA. OTLK...VFR.
SERN HLF...SCT-BKN025 BKN035-050 TOPS FL180 BKN CI ABV. WDLY SCT
   -SHRA. OTLK...MVFR CIGS SHRA.
CA...
NRN CA...
   FOT NWD...SCT025 BKN CI ABV. BECMG 0205 SCT020 OVC050 TOPS
      160. ISOL -SHRA. OTLK...IFR CIGS.
   S OF FOT...SCT-BKN010 TOPS 030-040. OTLK...IFR CIGS.
CNTRL CA...SCT-BKN010 TOPS 030-040. OTLK...IFR CIGS.
SRN CA...
   OUTER CSTL WTRS...CIGS BKN010-020 TOPS 030-050.
      OTLK...IFR CIGS.
   ADJ CSTL WTRS...SKC. OCNL AGL SCT010. OTLK...VFR BECMG 0811
      IFR CIGS BR.
.
THE AREA FORECAST WILL TERMINATE AT 2359Z ON 10 OCTOBER 2017. IN
PLACE OF THE AREA FORECAST...PLEASE SEE THE GRAPHICAL FORECAST AT
WWW.AVIATIONWEATHER.GOV/GFA. GRAPHICAL AND TEXT AIRMETS WILL
CONTINUE AS REGULARLY SCHEDULED.
....

Shortcut to this page: http://wxbay.com.

Data may contain errors.